Time;durP1;ratioP1;P1;durP2;ratioP2;P2;SDS_P1;SDS_P2;PMS_P1;PMS_P2;Temp;Humidity;BMP_temperature;BMP_pressure;BME280_temperature;BME280_humidity;BME280_pressure;Samples;Min_cycle;Max_cycle;Signal;HPM_P1;HPM_P2
2022/06/25 00:01:10;;;;;;;11.02;8.30;;;;;;;;;;5006643;28;20198;-75
2022/06/25 00:03:35;;;;;;;9.75;8.90;;;;;;;;;;4998323;28;20622;-74
2022/06/25 00:06:01;;;;;;;9.50;8.60;;;;;;;;;;5010771;28;20183;-73
2022/06/25 00:08:26;;;;;;;9.57;8.50;;;;;;;;;;5003684;28;20176;-74
2022/06/25 00:10:54;;;;;;;8.88;8.02;;;;;;;;;;5009094;28;20594;-74
2022/06/25 00:13:20;;;;;;;9.15;8.35;;;;;;;;;;5008897;28;20689;-73
2022/06/25 00:15:45;;;;;;;9.18;8.27;;;;;;;;;;5011790;28;20206;-74
2022/06/25 00:18:11;;;;;;;9.20;8.40;;;;;;;;;;5006096;28;20215;-74
2022/06/25 00:20:36;;;;;;;9.90;7.78;;;;;;;;;;4996937;28;20218;-73
2022/06/25 00:23:01;;;;;;;8.25;7.35;;;;;;;;;;5000829;28;20262;-74
2022/06/25 00:25:27;;;;;;;8.93;7.95;;;;;;;;;;5007313;28;20190;-74
2022/06/25 00:27:52;;;;;;;8.85;7.88;;;;;;;;;;5009407;28;20217;-74
2022/06/25 00:30:17;;;;;;;8.65;7.70;;;;;;;;;;5005735;28;20545;-74
2022/06/25 00:32:44;;;;;;;8.68;7.78;;;;;;;;;;4991588;28;20400;-74
2022/06/25 00:35:09;;;;;;;8.52;7.72;;;;;;;;;;5008175;28;20232;-74
2022/06/25 00:37:34;;;;;;;7.53;6.93;;;;;;;;;;5004998;28;20191;-74
2022/06/25 00:39:59;;;;;;;8.55;7.57;;;;;;;;;;5009432;28;20202;-74
2022/06/25 00:42:25;;;;;;;8.63;7.97;;;;;;;;;;5010594;28;20332;-74
2022/06/25 00:44:52;;;;;;;9.48;7.63;;;;;;;;;;5011991;28;20179;-74
2022/06/25 00:47:17;;;;;;;10.95;7.95;;;;;;;;;;5014536;28;20171;-74
2022/06/25 00:49:42;;;;;;;11.73;8.93;;;;;;;;;;5011219;28;20202;-74
2022/06/25 00:52:12;;;;;;;7.55;6.28;;;;;;;;;;5012099;28;20652;-74
2022/06/25 00:54:38;;;;;;;9.07;8.27;;;;;;;;;;5015980;28;20174;-74
2022/06/25 00:57:07;;;;;;;7.25;6.65;;;;;;;;;;5012874;28;20175;-74
2022/06/25 00:59:35;;;;;;;9.35;7.30;;;;;;;;;;5013907;28;20213;-76
2022/06/25 01:02:01;;;;;;;8.18;7.45;;;;;;;;;;5015289;28;20195;-75
2022/06/25 01:04:26;;;;;;;7.70;7.00;;;;;;;;;;4995145;28;20256;-74
2022/06/25 01:06:51;;;;;;;7.32;6.38;;;;;;;;;;5012482;28;20186;-74
2022/06/25 01:09:16;;;;;;;8.85;7.07;;;;;;;;;;5010497;28;20182;-74
2022/06/25 01:11:42;;;;;;;6.90;6.28;;;;;;;;;;5011397;28;20201;-74
2022/06/25 01:14:10;;;;;;;8.18;7.38;;;;;;;;;;5012154;28;20241;-74
2022/06/25 01:16:36;;;;;;;8.10;7.40;;;;;;;;;;5011562;28;20225;-74
2022/06/25 01:19:09;;;;;;;7.63;6.93;;;;;;;;;;5011461;28;20347;-75
2022/06/25 01:21:35;;;;;;;8.07;7.38;;;;;;;;;;5011440;28;20181;-75
2022/06/25 01:24:01;;;;;;;8.88;7.90;;;;;;;;;;5009792;28;20765;-75
2022/06/25 01:26:26;;;;;;;7.93;7.30;;;;;;;;;;4993014;28;20187;-75
2022/06/25 01:28:51;;;;;;;8.07;7.28;;;;;;;;;;5005424;28;20685;-74
2022/06/25 01:31:16;;;;;;;7.75;7.15;;;;;;;;;;5009134;28;20193;-75
2022/06/25 01:33:41;;;;;;;8.20;7.50;;;;;;;;;;4992751;28;20199;-75
2022/06/25 01:36:06;;;;;;;8.88;7.82;;;;;;;;;;5008159;28;20522;-74
2022/06/25 01:38:32;;;;;;;9.65;8.30;;;;;;;;;;5009235;28;20183;-75
2022/06/25 01:40:57;;;;;;;6.93;6.22;;;;;;;;;;4998362;28;20190;-75
2022/06/25 01:43:22;;;;;;;8.30;7.15;;;;;;;;;;5006924;28;20624;-74
2022/06/25 01:45:47;;;;;;;8.23;7.22;;;;;;;;;;5012229;28;20194;-73
2022/06/25 01:48:12;;;;;;;10.98;7.68;;;;;;;;;;5010413;28;20257;-76
2022/06/25 01:50:38;;;;;;;9.02;8.02;;;;;;;;;;5009407;28;20633;-74
2022/06/25 01:53:03;;;;;;;8.70;7.80;;;;;;;;;;5008781;28;20237;-74
2022/06/25 01:55:29;;;;;;;9.30;7.70;;;;;;;;;;4993263;28;20210;-75
2022/06/25 01:57:54;;;;;;;8.35;7.65;;;;;;;;;;5006714;28;20257;-73
2022/06/25 02:00:23;;;;;;;8.93;7.88;;;;;;;;;;5009656;28;20187;-75
2022/06/25 02:02:49;;;;;;;8.00;7.30;;;;;;;;;;5009533;28;20237;-75
2022/06/25 02:05:15;;;;;;;7.93;6.93;;;;;;;;;;5001001;28;20556;-75
2022/06/25 02:07:40;;;;;;;8.63;7.82;;;;;;;;;;5010223;28;20592;-74
2022/06/25 02:10:06;;;;;;;8.82;7.97;;;;;;;;;;5008533;28;20218;-74
2022/06/25 02:12:31;;;;;;;9.63;8.30;;;;;;;;;;5003574;28;20722;-75
2022/06/25 02:14:57;;;;;;;9.18;7.53;;;;;;;;;;5007434;28;20243;-75
2022/06/25 02:17:22;;;;;;;9.25;8.35;;;;;;;;;;5007466;28;20282;-74
2022/06/25 02:19:47;;;;;;;7.70;6.93;;;;;;;;;;5001963;28;20230;-74
2022/06/25 02:22:14;;;;;;;8.30;7.53;;;;;;;;;;5010215;28;20203;-74
2022/06/25 02:24:41;;;;;;;9.05;7.85;;;;;;;;;;5009030;28;20666;-74
2022/06/25 02:27:06;;;;;;;8.27;7.47;;;;;;;;;;4991115;28;20172;-75
2022/06/25 02:29:31;;;;;;;11.35;8.10;;;;;;;;;;5006972;28;20180;-75
2022/06/25 02:31:57;;;;;;;9.32;8.30;;;;;;;;;;4989974;28;20188;-75
2022/06/25 02:34:22;;;;;;;10.48;7.65;;;;;;;;;;5007000;28;20175;-74
2022/06/25 02:36:47;;;;;;;8.77;7.53;;;;;;;;;;5010280;28;20730;-74
2022/06/25 02:39:12;;;;;;;8.88;7.97;;;;;;;;;;4990267;28;20210;-74
2022/06/25 02:41:37;;;;;;;10.93;7.72;;;;;;;;;;5004291;28;20194;-74
2022/06/25 02:44:03;;;;;;;7.95;6.65;;;;;;;;;;5008492;28;20716;-74
2022/06/25 02:46:28;;;;;;;7.90;7.07;;;;;;;;;;4996545;28;20270;-74
2022/06/25 02:48:53;;;;;;;8.73;7.18;;;;;;;;;;5008758;28;20286;-74
2022/06/25 02:51:18;;;;;;;8.50;7.70;;;;;;;;;;5011826;28;20182;-74
2022/06/25 02:53:44;;;;;;;8.13;7.10;;;;;;;;;;5012038;28;20241;-74
2022/06/25 02:58:56;;;;;;;10.05;6.90;;;;;;;;;;5011608;28;20208;-74
2022/06/25 03:01:22;;;;;;;8.43;6.70;;;;;;;;;;5004671;28;20180;-74
2022/06/25 03:03:47;;;;;;;9.85;7.30;;;;;;;;;;5000980;28;20712;-74
2022/06/25 03:06:13;;;;;;;8.30;7.47;;;;;;;;;;5009716;28;20276;-75
2022/06/25 03:08:38;;;;;;;7.90;7.15;;;;;;;;;;5011635;28;20879;-76
2022/06/25 03:11:03;;;;;;;7.60;6.90;;;;;;;;;;5013366;28;20555;-73
2022/06/25 03:13:31;;;;;;;9.60;7.10;;;;;;;;;;5014556;28;20590;-75
2022/06/25 03:15:56;;;;;;;8.70;7.60;;;;;;;;;;4991660;28;20218;-73
2022/06/25 03:18:22;;;;;;;8.55;6.82;;;;;;;;;;5010466;28;20623;-75
2022/06/25 03:20:47;;;;;;;7.90;7.15;;;;;;;;;;5010133;28;20167;-75
2022/06/25 03:23:12;;;;;;;11.50;7.05;;;;;;;;;;5014221;28;20639;-75
2022/06/25 03:25:37;;;;;;;11.68;7.65;;;;;;;;;;5009504;28;20233;-75
2022/06/25 03:28:02;;;;;;;8.23;6.82;;;;;;;;;;5010553;28;20179;-75
2022/06/25 03:30:28;;;;;;;10.70;8.05;;;;;;;;;;5009032;28;20245;-75
2022/06/25 03:32:53;;;;;;;10.00;6.82;;;;;;;;;;5010923;28;20229;-75
2022/06/25 03:35:18;;;;;;;8.15;6.60;;;;;;;;;;5011879;28;20181;-73
2022/06/25 03:37:43;;;;;;;7.05;6.05;;;;;;;;;;5011722;28;20244;-73
2022/06/25 03:40:09;;;;;;;8.68;6.30;;;;;;;;;;5007748;28;20178;-74
2022/06/25 03:42:34;;;;;;;8.63;6.07;;;;;;;;;;4996033;28;20210;-74
2022/06/25 03:44:59;;;;;;;8.60;6.10;;;;;;;;;;5012640;28;20198;-73
2022/06/25 03:47:25;;;;;;;6.55;5.47;;;;;;;;;;5005862;28;20207;-74
2022/06/25 03:49:50;;;;;;;6.13;5.25;;;;;;;;;;5008871;28;20182;-73
2022/06/25 03:52:15;;;;;;;15.40;5.72;;;;;;;;;;5011608;28;20203;-75
2022/06/25 03:54:40;;;;;;;5.75;4.90;;;;;;;;;;5011849;28;20261;-75
2022/06/25 03:57:06;;;;;;;5.70;4.60;;;;;;;;;;5005788;28;20186;-74
2022/06/25 03:59:31;;;;;;;5.50;4.97;;;;;;;;;;5012285;28;20194;-75
2022/06/25 04:01:56;;;;;;;7.85;5.75;;;;;;;;;;4989266;28;20657;-74
2022/06/25 04:04:21;;;;;;;7.78;5.38;;;;;;;;;;4998330;28;20213;-75
2022/06/25 04:06:47;;;;;;;5.10;4.63;;;;;;;;;;5003403;28;20207;-73
2022/06/25 04:09:12;;;;;;;5.50;4.25;;;;;;;;;;5005966;28;20185;-75
2022/06/25 04:11:38;;;;;;;5.40;4.55;;;;;;;;;;5011453;28;20187;-74
2022/06/25 04:14:03;;;;;;;5.82;4.25;;;;;;;;;;5015138;28;20205;-74
2022/06/25 04:16:28;;;;;;;4.35;3.95;;;;;;;;;;5011636;28;20187;-74
2022/06/25 04:18:54;;;;;;;7.45;4.25;;;;;;;;;;5009257;28;20230;-74
2022/06/25 04:21:19;;;;;;;4.72;3.78;;;;;;;;;;5009298;28;20700;-74
2022/06/25 04:23:44;;;;;;;5.30;3.50;;;;;;;;;;5012357;28;20269;-74
2022/06/25 04:26:09;;;;;;;8.05;3.90;;;;;;;;;;5005537;28;20178;-74
2022/06/25 04:31:18;;;;;;;4.65;3.33;;;;;;;;;;5011930;28;20244;-75
2022/06/25 04:33:43;;;;;;;5.13;3.07;;;;;;;;;;5011028;28;20681;-75
2022/06/25 04:36:08;;;;;;;3.60;3.00;;;;;;;;;;5011079;28;20455;-75
2022/06/25 04:38:34;;;;;;;3.60;2.83;;;;;;;;;;5012185;28;20187;-75
2022/06/25 04:40:59;;;;;;;3.60;2.95;;;;;;;;;;5014900;28;20586;-74
2022/06/25 04:43:24;;;;;;;4.77;2.90;;;;;;;;;;5013801;28;20632;-75
2022/06/25 04:45:50;;;;;;;6.15;3.72;;;;;;;;;;5022219;28;20450;-73
2022/06/25 04:48:15;;;;;;;3.72;2.78;;;;;;;;;;5014221;28;20171;-74
2022/06/25 04:50:45;;;;;;;3.22;2.90;;;;;;;;;;5016000;28;20313;-73
2022/06/25 04:53:10;;;;;;;3.45;3.05;;;;;;;;;;5012366;28;20240;-74
2022/06/25 04:55:35;;;;;;;5.18;2.65;;;;;;;;;;5013189;28;20269;-73
2022/06/25 04:58:00;;;;;;;8.32;3.15;;;;;;;;;;5010089;28;20187;-74
2022/06/25 05:00:26;;;;;;;3.53;2.80;;;;;;;;;;5012148;28;20179;-73
2022/06/25 05:02:51;;;;;;;5.13;2.75;;;;;;;;;;5007734;28;20226;-74
2022/06/25 05:05:16;;;;;;;3.92;2.45;;;;;;;;;;5000860;28;20558;-74
2022/06/25 05:07:41;;;;;;;6.47;3.50;;;;;;;;;;5002364;28;20186;-74
2022/06/25 05:10:07;;;;;;;3.38;2.53;;;;;;;;;;5010390;28;20427;-75
2022/06/25 05:15:15;;;;;;;8.43;3.60;;;;;;;;;;5011574;28;20190;-74
2022/06/25 05:17:41;;;;;;;5.72;3.10;;;;;;;;;;5008614;28;20183;-74
2022/06/25 05:20:06;;;;;;;4.47;3.10;;;;;;;;;;5004378;28;20182;-75
2022/06/25 05:22:31;;;;;;;5.50;2.90;;;;;;;;;;5010592;28;20496;-74
2022/06/25 05:24:57;;;;;;;3.35;2.72;;;;;;;;;;5005781;28;20182;-74
2022/06/25 05:27:23;;;;;;;4.85;2.97;;;;;;;;;;5007816;28;20179;-74
2022/06/25 05:29:48;;;;;;;9.80;3.10;;;;;;;;;;5007594;28;20626;-74
2022/06/25 05:32:13;;;;;;;5.78;2.97;;;;;;;;;;5008239;28;20281;-75
2022/06/25 05:34:38;;;;;;;4.22;2.80;;;;;;;;;;5007857;28;20590;-75
2022/06/25 05:37:04;;;;;;;4.03;2.95;;;;;;;;;;5010769;28;20179;-75
2022/06/25 05:39:29;;;;;;;4.10;2.80;;;;;;;;;;5006067;28;20183;-74
2022/06/25 05:41:54;;;;;;;6.73;3.70;;;;;;;;;;5009128;28;20232;-74
2022/06/25 05:44:19;;;;;;;6.63;3.20;;;;;;;;;;5009919;28;20465;-75
2022/06/25 05:46:44;;;;;;;6.50;3.00;;;;;;;;;;5011941;28;20194;-74
2022/06/25 05:49:10;;;;;;;3.40;3.10;;;;;;;;;;5008428;28;20481;-74
2022/06/25 05:51:35;;;;;;;6.65;3.28;;;;;;;;;;4993202;28;20954;-74
2022/06/25 05:54:00;;;;;;;4.00;3.00;;;;;;;;;;5008268;28;20215;-75
2022/06/25 05:56:25;;;;;;;4.97;3.50;;;;;;;;;;5006177;28;20233;-74
2022/06/25 05:58:50;;;;;;;5.13;3.33;;;;;;;;;;5003736;28;20428;-74
2022/06/25 06:01:16;;;;;;;4.22;3.55;;;;;;;;;;4989576;28;20202;-75
2022/06/25 06:03:41;;;;;;;4.47;3.42;;;;;;;;;;5008318;28;20214;-74
2022/06/25 06:06:06;;;;;;;5.75;3.13;;;;;;;;;;4996431;28;20206;-74
2022/06/25 06:08:31;;;;;;;4.63;3.13;;;;;;;;;;5004038;28;20179;-74
2022/06/25 06:10:56;;;;;;;4.40;3.00;;;;;;;;;;5008733;28;20187;-75
2022/06/25 06:13:22;;;;;;;4.93;2.90;;;;;;;;;;5007706;28;20257;-75
2022/06/25 06:15:47;;;;;;;4.83;3.47;;;;;;;;;;5008715;28;20428;-74
2022/06/25 06:18:12;;;;;;;5.03;3.28;;;;;;;;;;5005356;28;20448;-74
2022/06/25 06:20:37;;;;;;;4.57;3.13;;;;;;;;;;5006604;28;20187;-75
2022/06/25 06:23:02;;;;;;;5.93;3.10;;;;;;;;;;5012418;28;20617;-74
2022/06/25 06:25:28;;;;;;;5.30;3.42;;;;;;;;;;5010426;28;20179;-74
2022/06/25 06:27:53;;;;;;;5.43;3.10;;;;;;;;;;5005812;28;20198;-74
2022/06/25 06:30:18;;;;;;;5.20;2.90;;;;;;;;;;5014314;28;20197;-74
2022/06/25 06:32:44;;;;;;;6.07;3.28;;;;;;;;;;5013568;28;20228;-74
2022/06/25 06:35:09;;;;;;;3.35;2.50;;;;;;;;;;5007458;28;20179;-74
2022/06/25 06:37:34;;;;;;;4.32;3.10;;;;;;;;;;5014146;28;20178;-74
2022/06/25 06:40:00;;;;;;;6.05;3.10;;;;;;;;;;5011447;28;20179;-74
2022/06/25 06:42:25;;;;;;;5.88;3.25;;;;;;;;;;5010950;28;20209;-74
2022/06/25 06:44:50;;;;;;;5.03;2.90;;;;;;;;;;5017670;28;20179;-75
2022/06/25 06:47:15;;;;;;;5.53;2.53;;;;;;;;;;5014068;28;20431;-74
2022/06/25 06:49:40;;;;;;;4.17;3.13;;;;;;;;;;5012894;28;20930;-74
2022/06/25 06:52:06;;;;;;;5.70;3.08;;;;;;;;;;5014505;28;20524;-71
2022/06/25 06:54:31;;;;;;;4.40;2.53;;;;;;;;;;5001925;28;20203;-72
2022/06/25 06:56:56;;;;;;;3.70;2.60;;;;;;;;;;5008611;28;20276;-73
2022/06/25 06:59:22;;;;;;;6.20;3.00;;;;;;;;;;5013588;28;20636;-73
2022/06/25 07:01:47;;;;;;;4.55;2.40;;;;;;;;;;4999055;28;20274;-73
2022/06/25 07:04:12;;;;;;;8.63;3.33;;;;;;;;;;5008965;28;20214;-73
2022/06/25 07:06:37;;;;;;;2.97;2.57;;;;;;;;;;5012364;28;20428;-73
2022/06/25 07:09:03;;;;;;;4.20;2.70;;;;;;;;;;5005360;28;20519;-73
2022/06/25 07:11:28;;;;;;;6.10;2.58;;;;;;;;;;4994268;28;20210;-73
2022/06/25 07:13:53;;;;;;;4.95;2.63;;;;;;;;;;5013918;28;20257;-73
2022/06/25 07:16:19;;;;;;;3.67;2.85;;;;;;;;;;5016486;28;20544;-73
2022/06/25 07:18:44;;;;;;;4.70;2.50;;;;;;;;;;5012191;28;20187;-74
2022/06/25 07:21:09;;;;;;;3.63;2.60;;;;;;;;;;5011733;28;20183;-73
2022/06/25 07:23:34;;;;;;;4.67;2.40;;;;;;;;;;5014388;28;20464;-73
2022/06/25 07:25:59;;;;;;;3.03;2.57;;;;;;;;;;5016177;28;20432;-73
2022/06/25 07:28:25;;;;;;;4.60;2.33;;;;;;;;;;5009615;28;20432;-73
2022/06/25 07:30:50;;;;;;;4.03;2.58;;;;;;;;;;5012604;28;20507;-73
2022/06/25 07:33:15;;;;;;;3.83;2.60;;;;;;;;;;5015021;28;20195;-73
2022/06/25 07:35:40;;;;;;;8.43;3.03;;;;;;;;;;5013649;28;20527;-73
2022/06/25 07:38:05;;;;;;;7.50;2.57;;;;;;;;;;5012245;28;20937;-73
2022/06/25 07:40:31;;;;;;;3.30;2.20;;;;;;;;;;5013249;28;20429;-73
2022/06/25 07:42:56;;;;;;;4.50;2.42;;;;;;;;;;5013881;28;20199;-74
2022/06/25 07:45:21;;;;;;;6.65;2.85;;;;;;;;;;5008582;28;20242;-73
2022/06/25 07:47:46;;;;;;;5.17;2.80;;;;;;;;;;5007216;28;20190;-73
2022/06/25 07:52:55;;;;;;;3.67;2.35;;;;;;;;;;5011835;28;20483;-73
2022/06/25 07:55:21;;;;;;;14.88;3.40;;;;;;;;;;5010032;28;20641;-73
2022/06/25 07:57:46;;;;;;;7.05;2.70;;;;;;;;;;5011710;28;20662;-74
2022/06/25 08:00:11;;;;;;;5.05;3.40;;;;;;;;;;5008737;28;20265;-73
2022/06/25 08:02:37;;;;;;;6.78;3.53;;;;;;;;;;4986289;28;20208;-73
2022/06/25 08:05:03;;;;;;;7.00;3.75;;;;;;;;;;5004318;28;20605;-73
2022/06/25 08:07:28;;;;;;;8.68;3.83;;;;;;;;;;5012216;28;20191;-74
2022/06/25 08:09:53;;;;;;;5.63;3.50;;;;;;;;;;5008595;28;20220;-74
2022/06/25 08:12:19;;;;;;;7.97;3.83;;;;;;;;;;5008510;28;20203;-73
2022/06/25 08:14:44;;;;;;;5.85;3.80;;;;;;;;;;5004853;28;20221;-74
2022/06/25 08:17:09;;;;;;;7.43;3.65;;;;;;;;;;5010358;28;20890;-73
2022/06/25 08:19:35;;;;;;;7.20;3.70;;;;;;;;;;4995556;28;20187;-73
2022/06/25 08:22:00;;;;;;;6.13;2.88;;;;;;;;;;4999972;28;20700;-74
2022/06/25 08:24:25;;;;;;;6.97;3.25;;;;;;;;;;4998610;28;20568;-74
2022/06/25 08:26:51;;;;;;;7.00;3.35;;;;;;;;;;5000549;28;20179;-73
2022/06/25 08:29:16;;;;;;;7.68;4.55;;;;;;;;;;4999916;28;20177;-73
2022/06/25 08:31:41;;;;;;;6.40;3.50;;;;;;;;;;5000294;28;20179;-73
2022/06/25 08:34:06;;;;;;;7.05;3.97;;;;;;;;;;5001706;28;20206;-73
2022/06/25 08:36:32;;;;;;;5.15;3.38;;;;;;;;;;4984943;28;20724;-73
2022/06/25 08:38:57;;;;;;;5.95;3.80;;;;;;;;;;5001926;28;20625;-73
2022/06/25 08:41:22;;;;;;;6.72;4.07;;;;;;;;;;5001765;28;20615;-73
2022/06/25 08:43:47;;;;;;;10.48;4.20;;;;;;;;;;5007499;28;20297;-74
2022/06/25 08:46:14;;;;;;;6.03;3.50;;;;;;;;;;5007012;28;20187;-74
2022/06/25 08:48:40;;;;;;;8.35;3.60;;;;;;;;;;5000705;28;20206;-74
2022/06/25 08:51:08;;;;;;;5.80;4.00;;;;;;;;;;4999223;28;20183;-73
2022/06/25 08:53:33;;;;;;;5.60;3.45;;;;;;;;;;4985335;28;20210;-74
2022/06/25 08:55:59;;;;;;;5.45;3.00;;;;;;;;;;4987997;28;20280;-74
2022/06/25 08:58:24;;;;;;;7.80;4.15;;;;;;;;;;4991351;28;20210;-74
2022/06/25 09:00:49;;;;;;;7.07;3.58;;;;;;;;;;5000194;28;20333;-74
2022/06/25 09:03:14;;;;;;;5.60;3.70;;;;;;;;;;4999538;28;20218;-74
2022/06/25 09:05:41;;;;;;;5.80;4.00;;;;;;;;;;4991548;28;20175;-74
2022/06/25 09:08:07;;;;;;;9.57;4.85;;;;;;;;;;4998363;28;20175;-74
2022/06/25 09:10:32;;;;;;;6.25;5.20;;;;;;;;;;4983123;28;20195;-73
2022/06/25 09:12:59;;;;;;;8.85;5.60;;;;;;;;;;5001233;28;20497;-74
2022/06/25 09:15:25;;;;;;;7.43;6.07;;;;;;;;;;5001383;28;20210;-74
2022/06/25 09:17:51;;;;;;;6.32;5.60;;;;;;;;;;4995689;28;20184;-74
2022/06/25 09:20:19;;;;;;;9.38;5.35;;;;;;;;;;4982904;28;20190;-74
2022/06/25 09:22:55;;;;;;;8.45;6.25;;;;;;;;;;4983292;28;20291;-74
2022/06/25 09:25:24;;;;;;;8.95;6.35;;;;;;;;;;4999443;28;20182;-74
2022/06/25 09:27:50;;;;;;;5.75;5.10;;;;;;;;;;4999746;28;20206;-74
2022/06/25 09:30:16;;;;;;;6.88;5.40;;;;;;;;;;5008448;28;20648;-74
2022/06/25 09:32:45;;;;;;;9.30;5.80;;;;;;;;;;5009228;28;20264;-74
2022/06/25 09:35:12;;;;;;;7.38;5.13;;;;;;;;;;4997416;28;20216;-74
2022/06/25 09:37:37;;;;;;;7.63;5.38;;;;;;;;;;5004185;28;20546;-74
2022/06/25 09:40:04;;;;;;;7.25;4.88;;;;;;;;;;5010337;28;20273;-73
2022/06/25 09:42:30;;;;;;;7.00;4.40;;;;;;;;;;5016660;28;20205;-74
2022/06/25 09:44:58;;;;;;;5.70;4.80;;;;;;;;;;5009529;28;20206;-74
2022/06/25 09:47:24;;;;;;;5.65;5.15;;;;;;;;;;4994082;28;20172;-74
2022/06/25 09:49:49;;;;;;;5.80;4.70;;;;;;;;;;4979951;28;20194;-74
2022/06/25 09:52:14;;;;;;;6.10;5.50;;;;;;;;;;4983733;28;20203;-74
2022/06/25 09:54:39;;;;;;;9.00;5.23;;;;;;;;;;4972922;28;20812;-74
2022/06/25 09:57:05;;;;;;;6.63;5.27;;;;;;;;;;4986399;28;20440;-74
2022/06/25 09:59:32;;;;;;;5.68;5.20;;;;;;;;;;4969883;28;20482;-74
2022/06/25 10:01:58;;;;;;;7.22;6.00;;;;;;;;;;4985499;28;20190;-74
2022/06/25 10:04:27;;;;;;;6.47;5.88;;;;;;;;;;4991725;28;20210;-74
2022/06/25 10:06:53;;;;;;;7.78;5.97;;;;;;;;;;4988247;28;20529;-75
2022/06/25 10:09:19;;;;;;;5.80;5.30;;;;;;;;;;4985223;28;20273;-74
2022/06/25 10:11:44;;;;;;;4.70;4.35;;;;;;;;;;4993056;28;20179;-74
2022/06/25 10:14:10;;;;;;;4.78;2.97;;;;;;;;;;4991599;28;20252;-74
2022/06/25 10:16:36;;;;;;;3.78;2.30;;;;;;;;;;4976044;28;20187;-74
2022/06/25 10:19:03;;;;;;;6.13;4.15;;;;;;;;;;4984594;28;20195;-74
2022/06/25 10:21:28;;;;;;;5.93;4.82;;;;;;;;;;4986159;28;20225;-74
2022/06/25 10:23:55;;;;;;;9.50;5.87;;;;;;;;;;4967699;28;21124;-73
2022/06/25 10:26:20;;;;;;;10.48;7.05;;;;;;;;;;4983589;28;20428;-73
2022/06/25 10:28:46;;;;;;;9.32;5.80;;;;;;;;;;4984652;28;20178;-73
2022/06/25 10:31:14;;;;;;;11.00;5.70;;;;;;;;;;4986488;28;20186;-73
2022/06/25 10:33:59;;;;;;;8.20;5.30;;;;;;;;;;4988539;28;21219;-73
2022/06/25 10:36:39;;;;;;;7.60;5.00;;;;;;;;;;4984233;28;20186;-73
2022/06/25 10:39:23;;;;;;;6.95;5.07;;;;;;;;;;4981462;28;20179;-73
2022/06/25 10:44:51;;;;;;;9.45;5.53;;;;;;;;;;4991110;28;20209;-74
2022/06/25 10:47:16;;;;;;;8.02;5.90;;;;;;;;;;4986478;28;20191;-73
2022/06/25 10:49:41;;;;;;;7.47;5.73;;;;;;;;;;4984842;28;22039;-73
2022/06/25 10:52:07;;;;;;;7.23;6.53;;;;;;;;;;4986146;28;20500;-74
2022/06/25 10:54:35;;;;;;;7.25;6.40;;;;;;;;;;4984923;28;20464;-73
2022/06/25 10:57:00;;;;;;;8.30;5.65;;;;;;;;;;4985259;28;20182;-74
2022/06/25 10:59:32;;;;;;;4.97;4.53;;;;;;;;;;4983331;28;20253;-74
2022/06/25 11:01:58;;;;;;;6.53;5.45;;;;;;;;;;4986624;28;20242;-74
2022/06/25 11:04:25;;;;;;;7.38;5.50;;;;;;;;;;4984692;28;20207;-74
2022/06/25 11:06:50;;;;;;;6.63;5.88;;;;;;;;;;4989130;28;20183;-74
2022/06/25 11:09:16;;;;;;;6.65;6.05;;;;;;;;;;4986896;28;20190;-74
2022/06/25 11:11:42;;;;;;;6.95;6.25;;;;;;;;;;4979731;28;20187;-74
2022/06/25 11:14:22;;;;;;;6.15;5.65;;;;;;;;;;4978513;28;20302;-74
2022/06/25 11:16:48;;;;;;;5.65;5.25;;;;;;;;;;4990365;28;20179;-74
2022/06/25 11:19:13;;;;;;;7.10;6.40;;;;;;;;;;4984583;28;20194;-73
2022/06/25 11:21:39;;;;;;;6.63;6.03;;;;;;;;;;4989608;28;20495;-73
2022/06/25 11:24:05;;;;;;;6.22;5.68;;;;;;;;;;4988458;28;20318;-73
2022/06/25 11:29:21;;;;;;;7.55;6.93;;;;;;;;;;4989286;28;20182;-73
2022/06/25 11:31:47;;;;;;;8.45;6.70;;;;;;;;;;4987364;28;20194;-73
2022/06/25 11:34:16;;;;;;;7.55;6.88;;;;;;;;;;4987612;28;20234;-73
2022/06/25 11:36:41;;;;;;;6.72;6.22;;;;;;;;;;4987712;28;20233;-73
2022/06/25 11:39:06;;;;;;;6.50;6.00;;;;;;;;;;4988077;28;20278;-74
2022/06/25 11:41:32;;;;;;;6.07;5.53;;;;;;;;;;4988669;28;20861;-73
2022/06/25 11:44:07;;;;;;;6.13;5.53;;;;;;;;;;4991311;28;20758;-73
2022/06/25 11:46:33;;;;;;;5.22;4.38;;;;;;;;;;4988925;28;20515;-73
2022/06/25 11:48:59;;;;;;;5.70;4.45;;;;;;;;;;4968120;28;20183;-73
2022/06/25 11:51:25;;;;;;;5.20;4.63;;;;;;;;;;4987113;28;20176;-73
2022/06/25 11:53:53;;;;;;;4.82;4.43;;;;;;;;;;4975063;28;20251;-73
2022/06/25 11:56:19;;;;;;;4.70;4.30;;;;;;;;;;4987616;28;20261;-73
2022/06/25 11:58:44;;;;;;;5.05;4.55;;;;;;;;;;4989176;28;20273;-73
2022/06/25 12:01:09;;;;;;;5.28;4.13;;;;;;;;;;4987981;28;20657;-73
2022/06/25 12:03:35;;;;;;;4.47;4.10;;;;;;;;;;4972144;28;20781;-73
2022/06/25 12:06:01;;;;;;;5.25;4.85;;;;;;;;;;4988544;28;20448;-73
2022/06/25 12:08:27;;;;;;;5.18;4.70;;;;;;;;;;4999593;28;20627;-73
2022/06/25 12:10:56;;;;;;;5.22;4.30;;;;;;;;;;4990274;28;20191;-73
2022/06/25 12:13:21;;;;;;;4.30;4.00;;;;;;;;;;4989882;28;20625;-74
2022/06/25 12:15:47;;;;;;;4.72;4.32;;;;;;;;;;4994165;28;20185;-74
2022/06/25 12:18:12;;;;;;;4.82;4.15;;;;;;;;;;4986924;28;20636;-73
2022/06/25 12:20:54;;;;;;;4.72;4.25;;;;;;;;;;4986446;28;20193;-73
2022/06/25 12:23:19;;;;;;;4.40;4.00;;;;;;;;;;4988161;28;20207;-72
2022/06/25 12:25:44;;;;;;;4.43;4.07;;;;;;;;;;4987607;28;20219;-74
2022/06/25 12:28:09;;;;;;;4.45;4.03;;;;;;;;;;4988474;28;20455;-75
2022/06/25 12:30:35;;;;;;;3.97;3.57;;;;;;;;;;4988154;28;20198;-74
2022/06/25 12:33:13;;;;;;;6.15;3.70;;;;;;;;;;4988883;28;20539;-75
2022/06/25 12:35:42;;;;;;;5.38;3.60;;;;;;;;;;4987760;28;20677;-73
2022/06/25 12:38:08;;;;;;;6.93;4.38;;;;;;;;;;4988905;28;20195;-73
2022/06/25 12:40:40;;;;;;;5.28;4.68;;;;;;;;;;4987088;28;20191;-73
2022/06/25 12:43:06;;;;;;;5.60;4.57;;;;;;;;;;4986803;28;20294;-74
2022/06/25 12:45:35;;;;;;;5.32;4.80;;;;;;;;;;4989901;28;20182;-74
2022/06/25 12:48:01;;;;;;;4.13;3.72;;;;;;;;;;4988249;28;22437;-73
2022/06/25 12:50:27;;;;;;;3.05;2.67;;;;;;;;;;4990602;28;20581;-73
2022/06/25 12:52:53;;;;;;;2.83;2.55;;;;;;;;;;4989185;28;20227;-74
2022/06/25 12:55:22;;;;;;;3.72;3.15;;;;;;;;;;4987887;28;20307;-74
2022/06/25 12:57:47;;;;;;;5.50;2.67;;;;;;;;;;4986932;28;20183;-72
2022/06/25 13:00:23;;;;;;;3.53;2.80;;;;;;;;;;4985329;28;20198;-73
2022/06/25 13:02:49;;;;;;;2.30;2.10;;;;;;;;;;4987235;28;20206;-73
2022/06/25 13:05:18;;;;;;;2.63;2.30;;;;;;;;;;4985313;28;20646;-72
2022/06/25 13:07:43;;;;;;;4.20;3.10;;;;;;;;;;4986534;28;20179;-73
2022/06/25 13:10:09;;;;;;;8.52;3.80;;;;;;;;;;4991407;28;20175;-73
2022/06/25 13:12:35;;;;;;;6.45;3.20;;;;;;;;;;4988161;28;20213;-73
2022/06/25 13:15:03;;;;;;;3.47;3.08;;;;;;;;;;4994038;28;20270;-74
2022/06/25 13:17:28;;;;;;;4.20;2.65;;;;;;;;;;4969795;28;20190;-73
2022/06/25 13:19:54;;;;;;;4.55;3.72;;;;;;;;;;4970836;28;20622;-73
2022/06/25 13:22:19;;;;;;;5.77;3.80;;;;;;;;;;4988081;28;20238;-73
2022/06/25 13:24:44;;;;;;;4.03;3.07;;;;;;;;;;4987628;28;20800;-73
2022/06/25 13:27:10;;;;;;;3.88;3.58;;;;;;;;;;4985752;28;20848;-73
2022/06/25 13:29:35;;;;;;;4.93;3.47;;;;;;;;;;4984871;28;20207;-74
2022/06/25 13:32:01;;;;;;;4.70;3.00;;;;;;;;;;4988084;28;20191;-74
2022/06/25 13:34:26;;;;;;;4.32;3.70;;;;;;;;;;4986578;28;20424;-74
2022/06/25 13:36:52;;;;;;;3.47;3.20;;;;;;;;;;4986753;28;20178;-74
2022/06/25 13:39:17;;;;;;;5.05;3.70;;;;;;;;;;4970219;28;20185;-73
2022/06/25 13:41:44;;;;;;;3.20;2.33;;;;;;;;;;4986388;28;20201;-74
2022/06/25 13:44:10;;;;;;;3.17;2.40;;;;;;;;;;4989555;28;20298;-73
2022/06/25 13:46:35;;;;;;;4.77;2.07;;;;;;;;;;4987131;28;20187;-73
2022/06/25 13:49:00;;;;;;;2.42;2.22;;;;;;;;;;4972005;28;20474;-73
2022/06/25 13:51:25;;;;;;;7.53;2.60;;;;;;;;;;4987657;28;20183;-73
2022/06/25 13:53:51;;;;;;;2.97;2.20;;;;;;;;;;4986713;28;20831;-73
2022/06/25 13:56:18;;;;;;;2.60;2.38;;;;;;;;;;4986189;28;20912;-73
2022/06/25 13:58:44;;;;;;;3.13;2.17;;;;;;;;;;4983698;28;20175;-73
2022/06/25 14:01:09;;;;;;;2.30;2.10;;;;;;;;;;4985548;28;21489;-73
2022/06/25 14:03:34;;;;;;;3.77;2.50;;;;;;;;;;4985198;28;20550;-73
2022/06/25 14:06:00;;;;;;;2.63;2.42;;;;;;;;;;4985015;28;21286;-74
2022/06/25 14:08:25;;;;;;;4.63;2.55;;;;;;;;;;4970752;28;20272;-74
2022/06/25 14:10:50;;;;;;;2.70;2.27;;;;;;;;;;4992144;28;21347;-74
2022/06/25 14:13:16;;;;;;;2.30;2.20;;;;;;;;;;4985913;28;20676;-73
2022/06/25 14:15:41;;;;;;;3.25;2.58;;;;;;;;;;4989870;28;20212;-73
2022/06/25 14:18:07;;;;;;;2.88;2.20;;;;;;;;;;4984707;28;20244;-73
2022/06/25 14:20:32;;;;;;;2.58;2.38;;;;;;;;;;4986516;28;20262;-74
2022/06/25 14:22:57;;;;;;;3.00;2.45;;;;;;;;;;4986356;28;21195;-73
2022/06/25 14:25:24;;;;;;;2.77;2.13;;;;;;;;;;4984975;28;20194;-74
2022/06/25 14:27:53;;;;;;;3.40;2.33;;;;;;;;;;4986548;28;20420;-74
2022/06/25 14:30:19;;;;;;;3.08;2.72;;;;;;;;;;4986976;28;20228;-73
2022/06/25 14:32:44;;;;;;;3.50;2.03;;;;;;;;;;4975426;28;20204;-74
2022/06/25 14:35:10;;;;;;;4.22;2.50;;;;;;;;;;4986150;28;21363;-74
2022/06/25 14:43:04;;;;;;;3.50;3.20;;;;;;;;;;4985827;28;20265;-75
2022/06/25 14:45:29;;;;;;;3.47;3.10;;;;;;;;;;4994013;28;20183;-74
2022/06/25 14:47:54;;;;;;;2.97;2.78;;;;;;;;;;4988807;28;20774;-74
2022/06/25 14:50:19;;;;;;;4.55;2.92;;;;;;;;;;4990425;28;20210;-74
2022/06/25 14:52:45;;;;;;;3.53;3.15;;;;;;;;;;4975797;28;20217;-74
2022/06/25 14:55:10;;;;;;;3.25;2.95;;;;;;;;;;4990644;28;20179;-74
2022/06/25 14:57:35;;;;;;;3.22;2.92;;;;;;;;;;4986193;28;20198;-73